sensor_id;sensor_type;location;lat;lon;timestamp;pressure;altitude;pressure_sealevel;temperature;humidity
18858;BME280;9558;50.178;8.370;2023-03-16T00:00:38;98669.06;;;-1.38;100.00
18858;BME280;9558;50.178;8.370;2023-03-16T00:03:07;98665.69;;;-1.39;100.00
18858;BME280;9558;50.178;8.370;2023-03-16T00:05:33;98664.16;;;-1.42;100.00
18858;BME280;9558;50.178;8.370;2023-03-16T00:08:00;98662.63;;;-1.44;100.00
18858;BME280;9558;50.178;8.370;2023-03-16T00:10:28;98663.69;;;-1.48;100.00
18858;BME280;9558;50.178;8.370;2023-03-16T00:12:55;98663.69;;;-1.48;100.00
18858;BME280;9558;50.178;8.370;2023-03-16T00:15:22;98656.25;;;-1.51;100.00
18858;BME280;9558;50.178;8.370;2023-03-16T00:17:49;98652.88;;;-1.52;100.00
18858;BME280;9558;50.178;8.370;2023-03-16T00:20:16;98650.44;;;-1.53;100.00
18858;BME280;9558;50.178;8.370;2023-03-16T00:22:43;98653.06;;;-1.55;100.00
18858;BME280;9558;50.178;8.370;2023-03-16T00:25:12;98650.44;;;-1.53;100.00
18858;BME280;9558;50.178;8.370;2023-03-16T00:27:40;98642.03;;;-1.54;100.00
18858;BME280;9558;50.178;8.370;2023-03-16T00:30:08;98637.03;;;-1.55;100.00
18858;BME280;9558;50.178;8.370;2023-03-16T00:32:36;98642.09;;;-1.55;100.00
18858;BME280;9558;50.178;8.370;2023-03-16T00:35:04;98642.91;;;-1.55;100.00
18858;BME280;9558;50.178;8.370;2023-03-16T00:37:31;98635.38;;;-1.57;100.00
18858;BME280;9558;50.178;8.370;2023-03-16T00:39:58;98633.75;;;-1.58;100.00
18858;BME280;9558;50.178;8.370;2023-03-16T00:42:26;98638.19;;;-1.61;100.00
18858;BME280;9558;50.178;8.370;2023-03-16T00:44:55;98648.44;;;-1.63;100.00
18858;BME280;9558;50.178;8.370;2023-03-16T00:47:23;98645.97;;;-1.64;100.00
18858;BME280;9558;50.178;8.370;2023-03-16T00:49:50;98645.97;;;-1.64;100.00
18858;BME280;9558;50.178;8.370;2023-03-16T00:52:16;98646.03;;;-1.66;100.00
18858;BME280;9558;50.178;8.370;2023-03-16T00:54:44;98644.44;;;-1.67;100.00
18858;BME280;9558;50.178;8.370;2023-03-16T00:57:12;98647.84;;;-1.68;100.00
18858;BME280;9558;50.178;8.370;2023-03-16T00:59:40;98639.53;;;-1.70;100.00
18858;BME280;9558;50.178;8.370;2023-03-16T01:02:08;98646.22;;;-1.69;100.00
18858;BME280;9558;50.178;8.370;2023-03-16T01:04:35;98637.09;;;-1.71;100.00
18858;BME280;9558;50.178;8.370;2023-03-16T01:07:03;98638.06;;;-1.74;100.00
18858;BME280;9558;50.178;8.370;2023-03-16T01:09:29;98633.88;;;-1.75;100.00
18858;BME280;9558;50.178;8.370;2023-03-16T01:12:01;98642.38;;;-1.76;100.00
18858;BME280;9558;50.178;8.370;2023-03-16T01:14:28;98639.13;;;-1.78;100.00
18858;BME280;9558;50.178;8.370;2023-03-16T01:16:54;98642.47;;;-1.78;100.00
18858;BME280;9558;50.178;8.370;2023-03-16T01:19:22;98637.41;;;-1.78;100.00
18858;BME280;9558;50.178;8.370;2023-03-16T01:21:49;98641.75;;;-1.80;100.00
18858;BME280;9558;50.178;8.370;2023-03-16T01:24:15;98635.03;;;-1.81;100.00
18858;BME280;9558;50.178;8.370;2023-03-16T01:26:41;98631.69;;;-1.81;100.00
18858;BME280;9558;50.178;8.370;2023-03-16T01:29:09;98630.94;;;-1.83;100.00
18858;BME280;9558;50.178;8.370;2023-03-16T01:31:36;98620.09;;;-1.85;100.00
18858;BME280;9558;50.178;8.370;2023-03-16T01:34:02;98616.63;;;-1.84;100.00
18858;BME280;9558;50.178;8.370;2023-03-16T01:36:30;98611.53;;;-1.84;100.00
18858;BME280;9558;50.178;8.370;2023-03-16T01:38:57;98612.56;;;-1.87;100.00
18858;BME280;9558;50.178;8.370;2023-03-16T01:41:24;98616.06;;;-1.89;100.00
18858;BME280;9558;50.178;8.370;2023-03-16T01:43:51;98611.00;;;-1.89;100.00
18858;BME280;9558;50.178;8.370;2023-03-16T01:46:23;98610.25;;;-1.92;100.00
18858;BME280;9558;50.178;8.370;2023-03-16T01:48:55;98604.38;;;-1.92;100.00
18858;BME280;9558;50.178;8.370;2023-03-16T01:51:28;98596.84;;;-1.94;100.00
18858;BME280;9558;50.178;8.370;2023-03-16T01:54:01;98601.28;;;-1.97;100.00
18858;BME280;9558;50.178;8.370;2023-03-16T01:56:32;98593.75;;;-1.99;100.00
18858;BME280;9558;50.178;8.370;2023-03-16T01:59:05;98585.25;;;-1.98;100.00
18858;BME280;9558;50.178;8.370;2023-03-16T02:01:32;98593.03;;;-2.01;100.00
18858;BME280;9558;50.178;8.370;2023-03-16T02:04:07;98589.59;;;-2.00;100.00
18858;BME280;9558;50.178;8.370;2023-03-16T02:06:38;98601.34;;;-1.99;100.00
18858;BME280;9558;50.178;8.370;2023-03-16T02:09:07;98605.72;;;-2.01;100.00
18858;BME280;9558;50.178;8.370;2023-03-16T02:11:33;98605.72;;;-2.01;100.00
18858;BME280;9558;50.178;8.370;2023-03-16T02:14:06;98599.91;;;-2.03;100.00
18858;BME280;9558;50.178;8.370;2023-03-16T02:16:33;98601.44;;;-2.00;100.00
18858;BME280;9558;50.178;8.370;2023-03-16T02:19:00;98590.50;;;-2.01;100.00
18858;BME280;9558;50.178;8.370;2023-03-16T02:21:30;98591.38;;;-2.02;100.00
18858;BME280;9558;50.178;8.370;2023-03-16T02:24:00;98586.31;;;-2.02;100.00
18858;BME280;9558;50.178;8.370;2023-03-16T02:26:35;98572.03;;;-2.03;100.00
18858;BME280;9558;50.178;8.370;2023-03-16T02:29:13;98576.25;;;-2.03;100.00
18858;BME280;9558;50.178;8.370;2023-03-16T02:31:43;98564.41;;;-2.03;100.00
18858;BME280;9558;50.178;8.370;2023-03-16T02:34:12;98563.66;;;-2.05;100.00
18858;BME280;9558;50.178;8.370;2023-03-16T02:36:41;98560.22;;;-2.04;100.00
18858;BME280;9558;50.178;8.370;2023-03-16T02:39:09;98565.31;;;-2.04;100.00
18858;BME280;9558;50.178;8.370;2023-03-16T02:41:37;98554.31;;;-2.04;100.00
18858;BME280;9558;50.178;8.370;2023-03-16T02:44:07;98543.28;;;-2.03;100.00
18858;BME280;9558;50.178;8.370;2023-03-16T02:46:38;98545.03;;;-2.04;100.00
18858;BME280;9558;50.178;8.370;2023-03-16T02:49:13;98545.03;;;-2.04;100.00
18858;BME280;9558;50.178;8.370;2023-03-16T02:51:41;98539.06;;;-2.03;100.00
18858;BME280;9558;50.178;8.370;2023-03-16T02:54:08;98542.22;;;-1.99;100.00
18858;BME280;9558;50.178;8.370;2023-03-16T02:56:35;98539.59;;;-1.98;100.00
18858;BME280;9558;50.178;8.370;2023-03-16T02:59:01;98537.16;;;-1.99;100.00
18858;BME280;9558;50.178;8.370;2023-03-16T03:01:28;98545.47;;;-1.97;100.00
18858;BME280;9558;50.178;8.370;2023-03-16T03:03:56;98539.41;;;-1.95;100.00
18858;BME280;9558;50.178;8.370;2023-03-16T03:06:24;98537.63;;;-1.93;100.00
18858;BME280;9558;50.178;8.370;2023-03-16T03:08:50;98534.81;;;-1.88;100.00
18858;BME280;9558;50.178;8.370;2023-03-16T03:11:17;98533.84;;;-1.85;100.00
18858;BME280;9558;50.178;8.370;2023-03-16T03:13:44;98526.94;;;-1.83;100.00
18858;BME280;9558;50.178;8.370;2023-03-16T03:16:10;98518.25;;;-1.79;100.00
18858;BME280;9558;50.178;8.370;2023-03-16T03:18:37;98519.88;;;-1.78;100.00
18858;BME280;9558;50.178;8.370;2023-03-16T03:21:03;98528.03;;;-1.73;100.00
18858;BME280;9558;50.178;8.370;2023-03-16T03:23:32;98526.44;;;-1.74;100.00
18858;BME280;9558;50.178;8.370;2023-03-16T03:25:59;98534.22;;;-1.77;100.00
18858;BME280;9558;50.178;8.370;2023-03-16T03:28:27;98540.91;;;-1.76;100.00
18858;BME280;9558;50.178;8.370;2023-03-16T03:30:54;98539.09;;;-1.74;100.00
18858;BME280;9558;50.178;8.370;2023-03-16T03:33:20;98524.97;;;-1.78;100.00
18858;BME280;9558;50.178;8.370;2023-03-16T03:35:53;98530.94;;;-1.79;100.00
18858;BME280;9558;50.178;8.370;2023-03-16T03:38:19;98531.03;;;-1.81;100.00
18858;BME280;9558;50.178;8.370;2023-03-16T03:40:49;98529.38;;;-1.82;100.00
18858;BME280;9558;50.178;8.370;2023-03-16T03:43:15;98530.38;;;-1.84;100.00
18858;BME280;9558;50.178;8.370;2023-03-16T03:45:42;98530.56;;;-1.87;100.00
18858;BME280;9558;50.178;8.370;2023-03-16T03:48:08;98542.50;;;-1.89;100.00
18858;BME280;9558;50.178;8.370;2023-03-16T03:50:35;98539.97;;;-1.89;100.00
18858;BME280;9558;50.178;8.370;2023-03-16T03:53:02;98540.78;;;-1.89;100.00
18858;BME280;9558;50.178;8.370;2023-03-16T03:55:29;98526.63;;;-1.93;100.00
18858;BME280;9558;50.178;8.370;2023-03-16T03:57:57;98534.25;;;-1.93;100.00
18858;BME280;9558;50.178;8.370;2023-03-16T04:00:23;98524.19;;;-1.95;100.00
18858;BME280;9558;50.178;8.370;2023-03-16T04:02:50;98525.84;;;-1.94;100.00
18858;BME280;9558;50.178;8.370;2023-03-16T04:05:17;98514.97;;;-1.96;100.00
18858;BME280;9558;50.178;8.370;2023-03-16T04:07:43;98524.38;;;-1.98;100.00
18858;BME280;9558;50.178;8.370;2023-03-16T04:10:10;98521.94;;;-1.99;100.00
18858;BME280;9558;50.178;8.370;2023-03-16T04:12:37;98512.78;;;-2.02;100.00
18858;BME280;9558;50.178;8.370;2023-03-16T04:15:05;98511.88;;;-2.01;100.00
18858;BME280;9558;50.178;8.370;2023-03-16T04:17:32;98521.44;;;-2.06;100.00
18858;BME280;9558;50.178;8.370;2023-03-16T04:19:59;98518.19;;;-2.08;100.00
18858;BME280;9558;50.178;8.370;2023-03-16T04:22:26;98519.09;;;-2.09;100.00
18858;BME280;9558;50.178;8.370;2023-03-16T04:24:54;98500.44;;;-2.08;100.00
18858;BME280;9558;50.178;8.370;2023-03-16T04:27:20;98508.06;;;-2.08;100.00
18858;BME280;9558;50.178;8.370;2023-03-16T04:29:47;98494.63;;;-2.10;100.00
18858;BME280;9558;50.178;8.370;2023-03-16T04:32:15;98486.41;;;-2.14;100.00
18858;BME280;9558;50.178;8.370;2023-03-16T04:34:41;98499.69;;;-2.10;100.00
18858;BME280;9558;50.178;8.370;2023-03-16T04:37:08;98501.34;;;-2.09;100.00
18858;BME280;9558;50.178;8.370;2023-03-16T04:39:35;98505.44;;;-2.06;100.00
18858;BME280;9558;50.178;8.370;2023-03-16T04:42:01;98496.44;;;-2.12;100.00
18858;BME280;9558;50.178;8.370;2023-03-16T04:44:28;98494.47;;;-2.07;100.00
18858;BME280;9558;50.178;8.370;2023-03-16T04:46:55;98504.63;;;-2.07;100.00
18858;BME280;9558;50.178;8.370;2023-03-16T04:49:23;98500.25;;;-2.05;100.00
18858;BME280;9558;50.178;8.370;2023-03-16T04:51:50;98503.53;;;-2.03;100.00
18858;BME280;9558;50.178;8.370;2023-03-16T04:54:17;98500.00;;;-2.00;100.00
18858;BME280;9558;50.178;8.370;2023-03-16T04:56:43;98504.25;;;-2.01;100.00
18858;BME280;9558;50.178;8.370;2023-03-16T04:59:10;98499.91;;;-1.99;100.00
18858;BME280;9558;50.178;8.370;2023-03-16T05:01:36;98500.84;;;-2.00;100.00
18858;BME280;9558;50.178;8.370;2023-03-16T05:04:03;98495.66;;;-1.98;100.00
18858;BME280;9558;50.178;8.370;2023-03-16T05:06:31;98506.44;;;-1.95;100.00
18858;BME280;9558;50.178;8.370;2023-03-16T05:08:58;98492.94;;;-1.95;100.00
18858;BME280;9558;50.178;8.370;2023-03-16T05:11:25;98487.63;;;-1.91;100.00
18858;BME280;9558;50.178;8.370;2023-03-16T05:13:51;98489.97;;;-1.87;100.00
18858;BME280;9558;50.178;8.370;2023-03-16T05:16:18;98493.34;;;-1.87;100.00
18858;BME280;9558;50.178;8.370;2023-03-16T05:18:44;98480.56;;;-1.85;100.00
18858;BME280;9558;50.178;8.370;2023-03-16T05:21:11;98487.25;;;-1.84;100.00
18858;BME280;9558;50.178;8.370;2023-03-16T05:23:39;98480.38;;;-1.82;100.00
18858;BME280;9558;50.178;8.370;2023-03-16T05:26:05;98486.00;;;-1.77;100.00
18858;BME280;9558;50.178;8.370;2023-03-16T05:28:32;98480.94;;;-1.77;100.00
18858;BME280;9558;50.178;8.370;2023-03-16T05:30:58;98482.38;;;-1.73;100.00
18858;BME280;9558;50.178;8.370;2023-03-16T05:33:27;98482.38;;;-1.73;100.00
18858;BME280;9558;50.178;8.370;2023-03-16T05:35:54;98478.75;;;-1.69;100.00
18858;BME280;9558;50.178;8.370;2023-03-16T05:38:22;98474.94;;;-1.62;100.00
18858;BME280;9558;50.178;8.370;2023-03-16T05:40:50;98470.53;;;-1.58;100.00
18858;BME280;9558;50.178;8.370;2023-03-16T05:43:17;98472.78;;;-1.53;100.00
18858;BME280;9558;50.178;8.370;2023-03-16T05:45:44;98470.97;;;-1.51;100.00
18858;BME280;9558;50.178;8.370;2023-03-16T05:48:11;98478.94;;;-1.43;100.00
18858;BME280;9558;50.178;8.370;2023-03-16T05:50:39;98462.41;;;-1.36;100.00
18858;BME280;9558;50.178;8.370;2023-03-16T05:53:06;98466.06;;;-1.26;100.00
18858;BME280;9558;50.178;8.370;2023-03-16T05:55:33;98468.84;;;-1.16;100.00
18858;BME280;9558;50.178;8.370;2023-03-16T05:58:01;98468.56;;;-1.11;100.00
18858;BME280;9558;50.178;8.370;2023-03-16T06:00:27;98469.44;;;-0.98;100.00
18858;BME280;9558;50.178;8.370;2023-03-16T06:02:54;98471.06;;;-0.97;100.00
18858;BME280;9558;50.178;8.370;2023-03-16T06:05:21;98466.06;;;-0.84;100.00
18858;BME280;9558;50.178;8.370;2023-03-16T06:07:49;98462.91;;;-0.75;100.00
18858;BME280;9558;50.178;8.370;2023-03-16T06:10:17;98475.88;;;-0.65;100.00
18858;BME280;9558;50.178;8.370;2023-03-16T06:12:44;98476.22;;;-0.57;100.00
18858;BME280;9558;50.178;8.370;2023-03-16T06:15:12;98484.69;;;-0.43;100.00
18858;BME280;9558;50.178;8.370;2023-03-16T06:17:38;98481.38;;;-0.31;100.00
18858;BME280;9558;50.178;8.370;2023-03-16T06:20:07;98472.31;;;-0.22;100.00
18858;BME280;9558;50.178;8.370;2023-03-16T06:22:36;98480.78;;;-0.09;100.00
18858;BME280;9558;50.178;8.370;2023-03-16T06:25:03;98474.19;;;0.02;100.00
18858;BME280;9558;50.178;8.370;2023-03-16T06:27:30;98473.88;;;0.06;100.00
18858;BME280;9558;50.178;8.370;2023-03-16T06:29:59;98476.44;;;0.19;100.00
18858;BME280;9558;50.178;8.370;2023-03-16T06:32:27;98481.75;;;0.29;100.00
18858;BME280;9558;50.178;8.370;2023-03-16T06:34:54;98493.13;;;0.36;100.00
18858;BME280;9558;50.178;8.370;2023-03-16T06:37:20;98492.50;;;0.45;100.00
18858;BME280;9558;50.178;8.370;2023-03-16T06:39:47;98491.81;;;0.56;100.00
18858;BME280;9558;50.178;8.370;2023-03-16T06:42:14;98495.25;;;0.68;100.00
18858;BME280;9558;50.178;8.370;2023-03-16T06:44:40;98483.50;;;0.78;100.00
18858;BME280;9558;50.178;8.370;2023-03-16T06:47:07;98492.25;;;0.87;100.00
18858;BME280;9558;50.178;8.370;2023-03-16T06:49:36;98495.69;;;0.99;100.00
18858;BME280;9558;50.178;8.370;2023-03-16T06:52:02;98492.78;;;1.16;100.00
18858;BME280;9558;50.178;8.370;2023-03-16T06:54:29;98497.22;;;1.26;100.00
18858;BME280;9558;50.178;8.370;2023-03-16T06:56:59;98496.69;;;1.33;100.00
18858;BME280;9558;50.178;8.370;2023-03-16T06:59:25;98502.66;;;1.45;100.00
18858;BME280;9558;50.178;8.370;2023-03-16T07:01:53;98505.88;;;1.60;100.00
18858;BME280;9558;50.178;8.370;2023-03-16T07:04:19;98499.66;;;1.76;100.00
18858;BME280;9558;50.178;8.370;2023-03-16T07:06:47;98498.66;;;1.89;100.00
18858;BME280;9558;50.178;8.370;2023-03-16T07:09:14;98496.41;;;2.09;100.00
18858;BME280;9558;50.178;8.370;2023-03-16T07:11:40;98503.38;;;2.30;100.00
18858;BME280;9558;50.178;8.370;2023-03-16T07:14:07;98503.16;;;2.55;100.00
18858;BME280;9558;50.178;8.370;2023-03-16T07:16:33;98497.81;;;2.81;100.00
18858;BME280;9558;50.178;8.370;2023-03-16T07:19:00;98496.88;;;3.05;100.00
18858;BME280;9558;50.178;8.370;2023-03-16T07:21:26;98495.88;;;3.28;100.00
18858;BME280;9558;50.178;8.370;2023-03-16T07:23:54;98503.34;;;3.53;100.00
18858;BME280;9558;50.178;8.370;2023-03-16T07:26:21;98506.84;;;3.84;100.00
18858;BME280;9558;50.178;8.370;2023-03-16T07:28:47;98511.84;;;4.07;98.77
18858;BME280;9558;50.178;8.370;2023-03-16T07:31:14;98510.59;;;4.22;97.26
18858;BME280;9558;50.178;8.370;2023-03-16T07:33:41;98502.44;;;4.38;96.90
18858;BME280;9558;50.178;8.370;2023-03-16T07:36:07;98502.13;;;4.53;95.36
18858;BME280;9558;50.178;8.370;2023-03-16T07:38:34;98501.06;;;4.55;94.32
18858;BME280;9558;50.178;8.370;2023-03-16T07:41:03;98504.06;;;4.60;94.82
18858;BME280;9558;50.178;8.370;2023-03-16T07:43:29;98509.22;;;4.70;93.63
18858;BME280;9558;50.178;8.370;2023-03-16T07:45:56;98514.41;;;4.90;91.08
18858;BME280;9558;50.178;8.370;2023-03-16T07:48:22;98507.41;;;5.01;89.10
18858;BME280;9558;50.178;8.370;2023-03-16T07:50:49;98512.81;;;4.98;88.40
18858;BME280;9558;50.178;8.370;2023-03-16T07:53:16;98507.16;;;5.05;85.60
18858;BME280;9558;50.178;8.370;2023-03-16T07:55:43;98509.78;;;5.44;87.61
18858;BME280;9558;50.178;8.370;2023-03-16T07:58:11;98512.66;;;5.99;86.90
18858;BME280;9558;50.178;8.370;2023-03-16T08:00:39;98506.06;;;6.34;77.06
18858;BME280;9558;50.178;8.370;2023-03-16T08:03:07;98496.81;;;6.89;82.62
18858;BME280;9558;50.178;8.370;2023-03-16T08:05:34;98503.59;;;7.54;80.57
18858;BME280;9558;50.178;8.370;2023-03-16T08:08:00;98504.91;;;8.20;80.11
18858;BME280;9558;50.178;8.370;2023-03-16T08:10:27;98507.16;;;8.76;77.93
18858;BME280;9558;50.178;8.370;2023-03-16T08:12:54;98501.59;;;8.97;69.88
18858;BME280;9558;50.178;8.370;2023-03-16T08:15:23;98509.94;;;9.42;68.36
18858;BME280;9558;50.178;8.370;2023-03-16T08:17:49;98507.88;;;9.86;68.27
18858;BME280;9558;50.178;8.370;2023-03-16T08:20:16;98514.13;;;10.33;68.66
18858;BME280;9558;50.178;8.370;2023-03-16T08:22:43;98504.63;;;10.82;65.06
18858;BME280;9558;50.178;8.370;2023-03-16T08:25:11;98497.75;;;11.29;67.17
18858;BME280;9558;50.178;8.370;2023-03-16T08:27:38;98497.81;;;11.67;62.77
18858;BME280;9558;50.178;8.370;2023-03-16T08:30:08;98503.16;;;12.26;62.59
18858;BME280;9558;50.178;8.370;2023-03-16T08:32:38;98499.94;;;12.84;61.11
18858;BME280;9558;50.178;8.370;2023-03-16T08:35:06;98507.09;;;13.34;59.29
18858;BME280;9558;50.178;8.370;2023-03-16T08:37:34;98507.03;;;13.92;55.10
18858;BME280;9558;50.178;8.370;2023-03-16T08:40:00;98513.47;;;14.24;56.12
18858;BME280;9558;50.178;8.370;2023-03-16T08:42:28;98510.06;;;14.59;56.21
18858;BME280;9558;50.178;8.370;2023-03-16T08:44:55;98492.22;;;14.91;51.42
18858;BME280;9558;50.178;8.370;2023-03-16T08:47:24;98494.50;;;15.20;52.37
18858;BME280;9558;50.178;8.370;2023-03-16T08:49:52;98482.72;;;15.38;51.86
18858;BME280;9558;50.178;8.370;2023-03-16T08:52:18;98492.75;;;15.61;50.52
18858;BME280;9558;50.178;8.370;2023-03-16T08:54:46;98490.38;;;15.80;49.57
18858;BME280;9558;50.178;8.370;2023-03-16T08:57:12;98493.81;;;15.94;49.23
18858;BME280;9558;50.178;8.370;2023-03-16T08:59:39;98490.81;;;15.83;47.97
18858;BME280;9558;50.178;8.370;2023-03-16T09:02:06;98496.34;;;15.33;46.52
18858;BME280;9558;50.178;8.370;2023-03-16T09:04:32;98494.94;;;14.76;48.99
18858;BME280;9558;50.178;8.370;2023-03-16T09:07:00;98486.78;;;14.15;50.19
18858;BME280;9558;50.178;8.370;2023-03-16T09:09:27;98491.81;;;13.67;49.42
18858;BME280;9558;50.178;8.370;2023-03-16T09:11:55;98486.50;;;13.17;51.78
18858;BME280;9558;50.178;8.370;2023-03-16T09:14:21;98480.25;;;12.60;52.31
18858;BME280;9558;50.178;8.370;2023-03-16T09:16:48;98477.09;;;12.05;52.81
18858;BME280;9558;50.178;8.370;2023-03-16T09:19:15;98474.28;;;11.53;53.40
18858;BME280;9558;50.178;8.370;2023-03-16T09:21:42;98469.75;;;11.01;54.95
18858;BME280;9558;50.178;8.370;2023-03-16T09:24:10;98467.16;;;10.61;56.44
18858;BME280;9558;50.178;8.370;2023-03-16T09:26:38;98469.03;;;10.28;56.91
18858;BME280;9558;50.178;8.370;2023-03-16T09:29:05;98462.13;;;9.87;57.47
18858;BME280;9558;50.178;8.370;2023-03-16T09:31:32;98458.59;;;9.55;58.55
18858;BME280;9558;50.178;8.370;2023-03-16T09:33:58;98455.66;;;9.25;59.61
18858;BME280;9558;50.178;8.370;2023-03-16T09:36:25;98451.44;;;8.99;60.25
18858;BME280;9558;50.178;8.370;2023-03-16T09:38:52;98453.78;;;8.76;61.75
18858;BME280;9558;50.178;8.370;2023-03-16T09:41:30;98455.13;;;8.54;62.38
18858;BME280;9558;50.178;8.370;2023-03-16T09:44:04;98457.78;;;8.36;62.98
18858;BME280;9558;50.178;8.370;2023-03-16T09:46:36;98462.53;;;8.23;63.89
18858;BME280;9558;50.178;8.370;2023-03-16T09:49:08;98462.19;;;8.18;64.63
18858;BME280;9558;50.178;8.370;2023-03-16T09:51:38;98457.88;;;8.00;64.64
18858;BME280;9558;50.178;8.370;2023-03-16T09:54:14;98467.38;;;8.00;65.52
18858;BME280;9558;50.178;8.370;2023-03-16T09:56:47;98468.06;;;8.02;65.65
18858;BME280;9558;50.178;8.370;2023-03-16T09:59:15;98469.47;;;7.96;65.77
18858;BME280;9558;50.178;8.370;2023-03-16T10:01:52;98471.63;;;7.83;66.32
18858;BME280;9558;50.178;8.370;2023-03-16T10:04:37;98475.75;;;7.75;65.95
18858;BME280;9558;50.178;8.370;2023-03-16T10:07:18;98470.59;;;7.75;66.96
18858;BME280;9558;50.178;8.370;2023-03-16T10:09:46;98470.59;;;7.75;67.33
18858;BME280;9558;50.178;8.370;2023-03-16T10:12:18;98468.69;;;7.77;67.17
18858;BME280;9558;50.178;8.370;2023-03-16T10:14:50;98471.44;;;7.76;67.63
18858;BME280;9558;50.178;8.370;2023-03-16T10:17:22;98460.81;;;7.79;67.28
18858;BME280;9558;50.178;8.370;2023-03-16T10:19:53;98461.91;;;7.76;67.32
18858;BME280;9558;50.178;8.370;2023-03-16T10:22:24;98468.41;;;7.81;67.87
18858;BME280;9558;50.178;8.370;2023-03-16T10:24:57;98462.31;;;7.90;68.20
18858;BME280;9558;50.178;8.370;2023-03-16T10:27:30;98461.75;;;7.96;68.05
18858;BME280;9558;50.178;8.370;2023-03-16T10:29:57;98454.50;;;8.00;68.66
18858;BME280;9558;50.178;8.370;2023-03-16T10:32:30;98454.03;;;8.04;68.76
18858;BME280;9558;50.178;8.370;2023-03-16T10:35:01;98446.81;;;8.08;68.24
18858;BME280;9558;50.178;8.370;2023-03-16T10:37:30;98444.31;;;8.16;68.18
18858;BME280;9558;50.178;8.370;2023-03-16T10:39:57;98452.88;;;8.25;68.94
18858;BME280;9558;50.178;8.370;2023-03-16T10:42:25;98446.63;;;8.36;68.81
18858;BME280;9558;50.178;8.370;2023-03-16T10:44:57;98444.56;;;8.39;67.20
18858;BME280;9558;50.178;8.370;2023-03-16T10:47:28;98440.84;;;8.34;67.75
18858;BME280;9558;50.178;8.370;2023-03-16T10:49:55;98450.47;;;8.31;68.44
18858;BME280;9558;50.178;8.370;2023-03-16T10:52:26;98440.69;;;8.35;67.93
18858;BME280;9558;50.178;8.370;2023-03-16T10:54:56;98450.78;;;8.28;67.37
18858;BME280;9558;50.178;8.370;2023-03-16T10:57:24;98453.84;;;8.24;67.62
18858;BME280;9558;50.178;8.370;2023-03-16T10:59:52;98445.25;;;8.15;67.07
18858;BME280;9558;50.178;8.370;2023-03-16T11:02:23;98443.28;;;8.09;68.67
18858;BME280;9558;50.178;8.370;2023-03-16T11:04:51;98431.09;;;8.19;69.03
18858;BME280;9558;50.178;8.370;2023-03-16T11:07:20;98435.41;;;8.10;68.94
18858;BME280;9558;50.178;8.370;2023-03-16T11:09:49;98437.16;;;8.10;69.63
18858;BME280;9558;50.178;8.370;2023-03-16T11:12:23;98429.16;;;8.21;69.69
18858;BME280;9558;50.178;8.370;2023-03-16T11:14:50;98431.44;;;8.24;69.61
18858;BME280;9558;50.178;8.370;2023-03-16T11:17:18;98441.47;;;8.27;68.08
18858;BME280;9558;50.178;8.370;2023-03-16T11:19:53;98426.47;;;8.31;69.35
18858;BME280;9558;50.178;8.370;2023-03-16T11:22:22;98425.72;;;8.39;67.70
18858;BME280;9558;50.178;8.370;2023-03-16T11:24:54;98417.53;;;8.43;68.53
18858;BME280;9558;50.178;8.370;2023-03-16T11:27:29;98416.13;;;8.49;67.94
18858;BME280;9558;50.178;8.370;2023-03-16T11:30:01;98415.44;;;8.47;67.08
18858;BME280;9558;50.178;8.370;2023-03-16T11:32:32;98406.25;;;8.44;67.02
18858;BME280;9558;50.178;8.370;2023-03-16T11:35:02;98406.78;;;8.56;68.55
18858;BME280;9558;50.178;8.370;2023-03-16T11:37:44;98410.69;;;8.60;68.02
18858;BME280;9558;50.178;8.370;2023-03-16T11:40:22;98397.94;;;8.67;67.27
18858;BME280;9558;50.178;8.370;2023-03-16T11:43:02;98399.75;;;8.75;66.61
18858;BME280;9558;50.178;8.370;2023-03-16T11:45:36;98402.84;;;8.87;67.06
18858;BME280;9558;50.178;8.370;2023-03-16T11:48:28;98399.16;;;8.97;64.97
18858;BME280;9558;50.178;8.370;2023-03-16T11:51:03;98387.84;;;8.98;64.66
18858;BME280;9558;50.178;8.370;2023-03-16T11:53:40;98379.50;;;9.05;65.36
18858;BME280;9558;50.178;8.370;2023-03-16T11:56:17;98373.50;;;9.04;63.71
18858;BME280;9558;50.178;8.370;2023-03-16T11:59:12;98379.97;;;9.08;65.79
18858;BME280;9558;50.178;8.370;2023-03-16T12:01:50;98386.09;;;9.15;64.37
18858;BME280;9558;50.178;8.370;2023-03-16T12:04:39;98381.28;;;9.21;65.48
18858;BME280;9558;50.178;8.370;2023-03-16T12:07:28;98378.03;;;9.27;64.30
18858;BME280;9558;50.178;8.370;2023-03-16T12:10:07;98365.44;;;9.32;63.97
18858;BME280;9558;50.178;8.370;2023-03-16T12:12:52;98372.84;;;9.51;65.15
18858;BME280;9558;50.178;8.370;2023-03-16T12:15:30;98370.25;;;9.60;63.79
18858;BME280;9558;50.178;8.370;2023-03-16T12:18:00;98372.84;;;9.60;62.91
18858;BME280;9558;50.178;8.370;2023-03-16T12:20:34;98383.69;;;9.55;62.83
18858;BME280;9558;50.178;8.370;2023-03-16T12:23:09;98376.38;;;9.59;63.62
18858;BME280;9558;50.178;8.370;2023-03-16T12:25:42;98369.47;;;9.59;62.65
18858;BME280;9558;50.178;8.370;2023-03-16T12:28:17;98368.34;;;9.54;62.05
18858;BME280;9558;50.178;8.370;2023-03-16T12:30:52;98357.50;;;9.58;62.16
18858;BME280;9558;50.178;8.370;2023-03-16T12:33:33;98351.72;;;9.56;62.90
18858;BME280;9558;50.178;8.370;2023-03-16T12:36:10;98340.88;;;9.61;63.41
18858;BME280;9558;50.178;8.370;2023-03-16T12:38:46;98348.47;;;9.54;62.26
18858;BME280;9558;50.178;8.370;2023-03-16T12:41:21;98340.56;;;9.56;62.88
18858;BME280;9558;50.178;8.370;2023-03-16T12:43:58;98334.41;;;9.65;63.03
18858;BME280;9558;50.178;8.370;2023-03-16T12:46:30;98333.13;;;9.69;63.44
18858;BME280;9558;50.178;8.370;2023-03-16T12:49:05;98320.47;;;9.74;63.51
18858;BME280;9558;50.178;8.370;2023-03-16T12:51:33;98321.59;;;9.80;62.46
18858;BME280;9558;50.178;8.370;2023-03-16T12:54:02;98322.72;;;9.77;61.11
18858;BME280;9558;50.178;8.370;2023-03-16T12:56:31;98313.69;;;9.81;62.07
18858;BME280;9558;50.178;8.370;2023-03-16T12:59:00;98299.44;;;9.85;62.87
18858;BME280;9558;50.178;8.370;2023-03-16T13:01:29;98308.13;;;10.01;63.48
18858;BME280;9558;50.178;8.370;2023-03-16T13:04:01;98300.00;;;10.12;61.92
18858;BME280;9558;50.178;8.370;2023-03-16T13:06:31;98306.69;;;10.30;62.59
18858;BME280;9558;50.178;8.370;2023-03-16T13:09:04;98305.25;;;10.35;61.79
18858;BME280;9558;50.178;8.370;2023-03-16T13:11:40;98283.97;;;10.48;61.29
18858;BME280;9558;50.178;8.370;2023-03-16T13:14:14;98288.81;;;10.51;61.41
18858;BME280;9558;50.178;8.370;2023-03-16T13:16:42;98279.72;;;10.55;59.14
18858;BME280;9558;50.178;8.370;2023-03-16T13:19:23;98271.53;;;10.52;60.65